sensor_id;sensor_type;location;lat;lon;timestamp;P1;durP1;ratioP1;P2;durP2;ratioP2
22250;SDS011;59348;52.158;5.588;2022-12-07T00:00:53;7.07;;;4.10;;
22250;SDS011;59348;52.158;5.588;2022-12-07T00:03:21;6.82;;;3.65;;
22250;SDS011;59348;52.158;5.588;2022-12-07T00:05:49;6.95;;;3.35;;
22250;SDS011;59348;52.158;5.588;2022-12-07T00:08:17;8.70;;;3.50;;
22250;SDS011;59348;52.158;5.588;2022-12-07T00:10:44;8.95;;;3.88;;
22250;SDS011;59348;52.158;5.588;2022-12-07T00:13:12;8.35;;;3.50;;
22250;SDS011;59348;52.158;5.588;2022-12-07T00:15:41;7.72;;;3.58;;
22250;SDS011;59348;52.158;5.588;2022-12-07T00:18:09;7.90;;;4.03;;
22250;SDS011;59348;52.158;5.588;2022-12-07T00:20:36;7.00;;;3.85;;
22250;SDS011;59348;52.158;5.588;2022-12-07T00:23:04;8.38;;;3.80;;
22250;SDS011;59348;52.158;5.588;2022-12-07T00:25:32;8.65;;;3.95;;
22250;SDS011;59348;52.158;5.588;2022-12-07T00:28:00;11.18;;;4.07;;
22250;SDS011;59348;52.158;5.588;2022-12-07T00:30:28;10.13;;;3.80;;
22250;SDS011;59348;52.158;5.588;2022-12-07T00:32:57;5.13;;;3.45;;
22250;SDS011;59348;52.158;5.588;2022-12-07T00:35:25;9.70;;;3.67;;
22250;SDS011;59348;52.158;5.588;2022-12-07T00:37:53;8.15;;;3.70;;
22250;SDS011;59348;52.158;5.588;2022-12-07T00:40:20;10.20;;;3.85;;
22250;SDS011;59348;52.158;5.588;2022-12-07T00:42:48;8.27;;;3.63;;
22250;SDS011;59348;52.158;5.588;2022-12-07T00:45:16;8.65;;;3.85;;
22250;SDS011;59348;52.158;5.588;2022-12-07T00:47:44;7.40;;;3.90;;
22250;SDS011;59348;52.158;5.588;2022-12-07T00:50:13;7.95;;;3.63;;
22250;SDS011;59348;52.158;5.588;2022-12-07T00:52:41;12.30;;;3.85;;
22250;SDS011;59348;52.158;5.588;2022-12-07T00:55:09;7.18;;;3.55;;
22250;SDS011;59348;52.158;5.588;2022-12-07T00:57:36;8.60;;;3.50;;
22250;SDS011;59348;52.158;5.588;2022-12-07T01:00:04;8.85;;;3.80;;
22250;SDS011;59348;52.158;5.588;2022-12-07T01:02:32;8.10;;;3.88;;
22250;SDS011;59348;52.158;5.588;2022-12-07T01:05:00;7.50;;;4.00;;
22250;SDS011;59348;52.158;5.588;2022-12-07T01:07:28;11.70;;;4.30;;
22250;SDS011;59348;52.158;5.588;2022-12-07T01:09:56;7.10;;;3.92;;
22250;SDS011;59348;52.158;5.588;2022-12-07T01:12:23;7.22;;;3.78;;
22250;SDS011;59348;52.158;5.588;2022-12-07T01:14:50;7.65;;;4.45;;
22250;SDS011;59348;52.158;5.588;2022-12-07T01:17:18;12.95;;;4.30;;
22250;SDS011;59348;52.158;5.588;2022-12-07T01:19:46;10.52;;;4.47;;
22250;SDS011;59348;52.158;5.588;2022-12-07T01:22:13;8.93;;;4.15;;
22250;SDS011;59348;52.158;5.588;2022-12-07T01:24:43;9.23;;;4.20;;
22250;SDS011;59348;52.158;5.588;2022-12-07T01:27:11;10.15;;;4.63;;
22250;SDS011;59348;52.158;5.588;2022-12-07T01:29:39;8.82;;;5.00;;
22250;SDS011;59348;52.158;5.588;2022-12-07T01:32:07;10.77;;;4.80;;
22250;SDS011;59348;52.158;5.588;2022-12-07T01:34:35;12.82;;;4.68;;
22250;SDS011;59348;52.158;5.588;2022-12-07T01:37:02;8.52;;;4.63;;
22250;SDS011;59348;52.158;5.588;2022-12-07T01:39:30;13.00;;;5.38;;
22250;SDS011;59348;52.158;5.588;2022-12-07T01:41:59;9.90;;;4.63;;
22250;SDS011;59348;52.158;5.588;2022-12-07T01:44:28;10.10;;;4.90;;
22250;SDS011;59348;52.158;5.588;2022-12-07T01:46:58;13.23;;;4.78;;
22250;SDS011;59348;52.158;5.588;2022-12-07T01:49:27;10.27;;;4.50;;
22250;SDS011;59348;52.158;5.588;2022-12-07T01:51:56;13.80;;;5.30;;
22250;SDS011;59348;52.158;5.588;2022-12-07T01:54:25;15.05;;;4.90;;
22250;SDS011;59348;52.158;5.588;2022-12-07T01:56:53;10.57;;;4.93;;
22250;SDS011;59348;52.158;5.588;2022-12-07T01:59:23;12.68;;;4.60;;
22250;SDS011;59348;52.158;5.588;2022-12-07T02:01:52;15.60;;;4.72;;
22250;SDS011;59348;52.158;5.588;2022-12-07T02:04:21;10.10;;;4.35;;
22250;SDS011;59348;52.158;5.588;2022-12-07T02:06:48;14.68;;;5.15;;
22250;SDS011;59348;52.158;5.588;2022-12-07T02:09:17;11.77;;;4.90;;
22250;SDS011;59348;52.158;5.588;2022-12-07T02:11:44;12.30;;;4.53;;
22250;SDS011;59348;52.158;5.588;2022-12-07T02:14:12;10.48;;;4.80;;
22250;SDS011;59348;52.158;5.588;2022-12-07T02:16:45;16.30;;;4.63;;
22250;SDS011;59348;52.158;5.588;2022-12-07T02:19:23;13.02;;;4.15;;
22250;SDS011;59348;52.158;5.588;2022-12-07T02:21:56;14.15;;;4.18;;
22250;SDS011;59348;52.158;5.588;2022-12-07T02:24:30;10.65;;;3.72;;
22250;SDS011;59348;52.158;5.588;2022-12-07T02:27:07;20.90;;;3.75;;
22250;SDS011;59348;52.158;5.588;2022-12-07T02:29:40;14.02;;;3.30;;
22250;SDS011;59348;52.158;5.588;2022-12-07T02:32:12;12.43;;;3.28;;
22250;SDS011;59348;52.158;5.588;2022-12-07T02:34:42;15.82;;;3.35;;
22250;SDS011;59348;52.158;5.588;2022-12-07T02:37:14;8.68;;;2.72;;
22250;SDS011;59348;52.158;5.588;2022-12-07T02:39:46;8.52;;;2.60;;
22250;SDS011;59348;52.158;5.588;2022-12-07T02:42:17;12.52;;;2.97;;
22250;SDS011;59348;52.158;5.588;2022-12-07T02:44:47;10.02;;;2.47;;
22250;SDS011;59348;52.158;5.588;2022-12-07T02:47:16;6.80;;;2.40;;
22250;SDS011;59348;52.158;5.588;2022-12-07T02:49:44;6.82;;;2.30;;
22250;SDS011;59348;52.158;5.588;2022-12-07T02:52:12;8.52;;;3.13;;
22250;SDS011;59348;52.158;5.588;2022-12-07T02:54:40;10.00;;;2.60;;
22250;SDS011;59348;52.158;5.588;2022-12-07T02:57:21;8.02;;;2.30;;
22250;SDS011;59348;52.158;5.588;2022-12-07T02:59:57;10.75;;;2.65;;
22250;SDS011;59348;52.158;5.588;2022-12-07T03:02:30;5.22;;;2.35;;
22250;SDS011;59348;52.158;5.588;2022-12-07T03:05:02;6.88;;;2.30;;
22250;SDS011;59348;52.158;5.588;2022-12-07T03:07:33;8.50;;;2.60;;
22250;SDS011;59348;52.158;5.588;2022-12-07T03:10:07;6.60;;;2.20;;
22250;SDS011;59348;52.158;5.588;2022-12-07T03:12:37;7.47;;;2.60;;
22250;SDS011;59348;52.158;5.588;2022-12-07T03:15:13;10.82;;;2.25;;
22250;SDS011;59348;52.158;5.588;2022-12-07T03:17:42;10.27;;;2.83;;
22250;SDS011;59348;52.158;5.588;2022-12-07T03:20:14;9.05;;;2.22;;
22250;SDS011;59348;52.158;5.588;2022-12-07T03:22:43;8.30;;;1.98;;
22250;SDS011;59348;52.158;5.588;2022-12-07T03:25:11;5.43;;;2.10;;
22250;SDS011;59348;52.158;5.588;2022-12-07T03:27:43;7.75;;;2.28;;
22250;SDS011;59348;52.158;5.588;2022-12-07T03:30:14;5.40;;;2.22;;
22250;SDS011;59348;52.158;5.588;2022-12-07T03:32:45;6.18;;;2.00;;
22250;SDS011;59348;52.158;5.588;2022-12-07T03:35:17;8.70;;;2.33;;
22250;SDS011;59348;52.158;5.588;2022-12-07T03:37:47;4.88;;;1.85;;
22250;SDS011;59348;52.158;5.588;2022-12-07T03:40:20;8.73;;;2.10;;
22250;SDS011;59348;52.158;5.588;2022-12-07T03:42:49;6.60;;;2.15;;
22250;SDS011;59348;52.158;5.588;2022-12-07T03:45:18;11.50;;;2.45;;
22250;SDS011;59348;52.158;5.588;2022-12-07T03:47:47;4.60;;;2.05;;
22250;SDS011;59348;52.158;5.588;2022-12-07T03:50:19;4.47;;;2.00;;
22250;SDS011;59348;52.158;5.588;2022-12-07T03:52:51;7.22;;;1.92;;
22250;SDS011;59348;52.158;5.588;2022-12-07T03:55:22;7.03;;;2.13;;
22250;SDS011;59348;52.158;5.588;2022-12-07T03:57:53;9.45;;;2.47;;
22250;SDS011;59348;52.158;5.588;2022-12-07T04:00:22;4.13;;;1.80;;
22250;SDS011;59348;52.158;5.588;2022-12-07T04:02:51;9.05;;;1.98;;
22250;SDS011;59348;52.158;5.588;2022-12-07T04:05:19;11.80;;;2.33;;
22250;SDS011;59348;52.158;5.588;2022-12-07T04:07:47;8.80;;;2.40;;
22250;SDS011;59348;52.158;5.588;2022-12-07T04:10:14;8.38;;;2.35;;
22250;SDS011;59348;52.158;5.588;2022-12-07T04:12:43;8.90;;;2.47;;
22250;SDS011;59348;52.158;5.588;2022-12-07T04:15:10;7.15;;;2.40;;
22250;SDS011;59348;52.158;5.588;2022-12-07T04:17:40;11.55;;;2.38;;
22250;SDS011;59348;52.158;5.588;2022-12-07T04:20:08;8.77;;;2.47;;
22250;SDS011;59348;52.158;5.588;2022-12-07T04:22:36;6.70;;;2.35;;
22250;SDS011;59348;52.158;5.588;2022-12-07T04:25:04;6.15;;;2.20;;
22250;SDS011;59348;52.158;5.588;2022-12-07T04:27:31;8.95;;;2.20;;
22250;SDS011;59348;52.158;5.588;2022-12-07T04:30:01;10.45;;;2.22;;
22250;SDS011;59348;52.158;5.588;2022-12-07T04:32:28;10.43;;;2.50;;
22250;SDS011;59348;52.158;5.588;2022-12-07T04:34:57;10.63;;;2.70;;
22250;SDS011;59348;52.158;5.588;2022-12-07T04:37:24;12.40;;;2.47;;
22250;SDS011;59348;52.158;5.588;2022-12-07T04:39:53;13.20;;;2.10;;
22250;SDS011;59348;52.158;5.588;2022-12-07T04:42:21;12.48;;;2.47;;
22250;SDS011;59348;52.158;5.588;2022-12-07T04:44:49;6.28;;;1.92;;
22250;SDS011;59348;52.158;5.588;2022-12-07T04:47:17;8.40;;;1.90;;
22250;SDS011;59348;52.158;5.588;2022-12-07T04:49:45;10.27;;;2.20;;
22250;SDS011;59348;52.158;5.588;2022-12-07T04:52:15;8.73;;;1.98;;
22250;SDS011;59348;52.158;5.588;2022-12-07T04:54:43;4.35;;;1.98;;
22250;SDS011;59348;52.158;5.588;2022-12-07T04:57:11;11.00;;;2.20;;
22250;SDS011;59348;52.158;5.588;2022-12-07T04:59:39;7.05;;;2.22;;
22250;SDS011;59348;52.158;5.588;2022-12-07T05:02:07;8.57;;;2.38;;
22250;SDS011;59348;52.158;5.588;2022-12-07T05:04:35;7.68;;;2.13;;
22250;SDS011;59348;52.158;5.588;2022-12-07T05:07:02;9.85;;;2.20;;
22250;SDS011;59348;52.158;5.588;2022-12-07T05:09:31;8.63;;;2.47;;
22250;SDS011;59348;52.158;5.588;2022-12-07T05:11:59;10.18;;;2.10;;
22250;SDS011;59348;52.158;5.588;2022-12-07T05:14:27;4.63;;;1.75;;
22250;SDS011;59348;52.158;5.588;2022-12-07T05:16:55;10.40;;;2.13;;
22250;SDS011;59348;52.158;5.588;2022-12-07T05:19:22;10.02;;;1.98;;
22250;SDS011;59348;52.158;5.588;2022-12-07T05:21:51;7.15;;;2.03;;
22250;SDS011;59348;52.158;5.588;2022-12-07T05:24:19;11.55;;;1.80;;
22250;SDS011;59348;52.158;5.588;2022-12-07T05:26:48;8.77;;;2.03;;
22250;SDS011;59348;52.158;5.588;2022-12-07T05:29:16;8.52;;;2.10;;
22250;SDS011;59348;52.158;5.588;2022-12-07T05:31:44;5.50;;;2.15;;
22250;SDS011;59348;52.158;5.588;2022-12-07T05:34:12;8.15;;;1.88;;
22250;SDS011;59348;52.158;5.588;2022-12-07T05:36:39;7.80;;;2.30;;
22250;SDS011;59348;52.158;5.588;2022-12-07T05:39:08;7.50;;;1.90;;
22250;SDS011;59348;52.158;5.588;2022-12-07T05:41:35;7.40;;;1.85;;
22250;SDS011;59348;52.158;5.588;2022-12-07T05:44:18;4.75;;;1.60;;
22250;SDS011;59348;52.158;5.588;2022-12-07T05:46:46;5.15;;;1.73;;
22250;SDS011;59348;52.158;5.588;2022-12-07T05:49:13;11.13;;;1.98;;
22250;SDS011;59348;52.158;5.588;2022-12-07T05:51:41;5.88;;;1.63;;
22250;SDS011;59348;52.158;5.588;2022-12-07T05:54:09;7.05;;;1.58;;
22250;SDS011;59348;52.158;5.588;2022-12-07T05:56:36;11.88;;;1.95;;
22250;SDS011;59348;52.158;5.588;2022-12-07T05:59:03;10.63;;;2.10;;
22250;SDS011;59348;52.158;5.588;2022-12-07T06:01:46;7.13;;;1.83;;
22250;SDS011;59348;52.158;5.588;2022-12-07T06:04:14;7.13;;;1.80;;
22250;SDS011;59348;52.158;5.588;2022-12-07T06:06:42;11.63;;;1.95;;
22250;SDS011;59348;52.158;5.588;2022-12-07T06:09:10;9.75;;;1.83;;
22250;SDS011;59348;52.158;5.588;2022-12-07T06:11:38;9.07;;;2.15;;
22250;SDS011;59348;52.158;5.588;2022-12-07T06:14:20;9.35;;;2.05;;
22250;SDS011;59348;52.158;5.588;2022-12-07T06:16:49;9.40;;;1.90;;
22250;SDS011;59348;52.158;5.588;2022-12-07T06:19:18;6.82;;;2.00;;
22250;SDS011;59348;52.158;5.588;2022-12-07T06:21:45;8.77;;;2.05;;
22250;SDS011;59348;52.158;5.588;2022-12-07T06:24:13;9.48;;;1.88;;
22250;SDS011;59348;52.158;5.588;2022-12-07T06:26:41;7.03;;;1.73;;
22250;SDS011;59348;52.158;5.588;2022-12-07T06:29:09;8.48;;;1.80;;
22250;SDS011;59348;52.158;5.588;2022-12-07T06:31:37;9.55;;;1.75;;
22250;SDS011;59348;52.158;5.588;2022-12-07T06:34:07;12.20;;;1.65;;
22250;SDS011;59348;52.158;5.588;2022-12-07T06:36:36;9.07;;;1.60;;
22250;SDS011;59348;52.158;5.588;2022-12-07T06:39:06;7.60;;;1.63;;
22250;SDS011;59348;52.158;5.588;2022-12-07T06:41:34;4.05;;;1.77;;
22250;SDS011;59348;52.158;5.588;2022-12-07T06:44:03;13.18;;;1.70;;
22250;SDS011;59348;52.158;5.588;2022-12-07T06:46:30;10.70;;;1.80;;
22250;SDS011;59348;52.158;5.588;2022-12-07T06:48:58;8.00;;;1.45;;
22250;SDS011;59348;52.158;5.588;2022-12-07T06:51:27;4.50;;;1.33;;
22250;SDS011;59348;52.158;5.588;2022-12-07T06:53:55;6.85;;;1.52;;
22250;SDS011;59348;52.158;5.588;2022-12-07T06:56:23;5.03;;;1.40;;
22250;SDS011;59348;52.158;5.588;2022-12-07T06:58:51;5.10;;;1.35;;
22250;SDS011;59348;52.158;5.588;2022-12-07T07:01:19;9.07;;;1.50;;
22250;SDS011;59348;52.158;5.588;2022-12-07T07:03:46;9.50;;;1.60;;
22250;SDS011;59348;52.158;5.588;2022-12-07T07:06:15;8.85;;;1.55;;
22250;SDS011;59348;52.158;5.588;2022-12-07T07:08:44;6.18;;;1.30;;
22250;SDS011;59348;52.158;5.588;2022-12-07T07:11:12;8.02;;;1.98;;
22250;SDS011;59348;52.158;5.588;2022-12-07T07:13:41;8.02;;;1.60;;
22250;SDS011;59348;52.158;5.588;2022-12-07T07:16:09;9.02;;;1.80;;
22250;SDS011;59348;52.158;5.588;2022-12-07T07:18:36;8.48;;;1.95;;
22250;SDS011;59348;52.158;5.588;2022-12-07T07:21:05;7.38;;;1.50;;
22250;SDS011;59348;52.158;5.588;2022-12-07T07:23:33;7.72;;;1.90;;
22250;SDS011;59348;52.158;5.588;2022-12-07T07:26:03;10.75;;;1.88;;
22250;SDS011;59348;52.158;5.588;2022-12-07T07:28:31;7.00;;;1.63;;
22250;SDS011;59348;52.158;5.588;2022-12-07T07:30:59;7.00;;;1.67;;
22250;SDS011;59348;52.158;5.588;2022-12-07T07:33:28;6.70;;;1.55;;
22250;SDS011;59348;52.158;5.588;2022-12-07T07:35:56;6.97;;;1.63;;
22250;SDS011;59348;52.158;5.588;2022-12-07T07:38:23;7.30;;;1.70;;
22250;SDS011;59348;52.158;5.588;2022-12-07T07:40:51;8.48;;;1.92;;
22250;SDS011;59348;52.158;5.588;2022-12-07T07:43:20;4.85;;;1.55;;
22250;SDS011;59348;52.158;5.588;2022-12-07T07:45:48;8.35;;;1.67;;
22250;SDS011;59348;52.158;5.588;2022-12-07T07:48:17;6.15;;;1.77;;
22250;SDS011;59348;52.158;5.588;2022-12-07T07:50:46;13.00;;;2.28;;
22250;SDS011;59348;52.158;5.588;2022-12-07T07:53:13;9.57;;;2.17;;
22250;SDS011;59348;52.158;5.588;2022-12-07T07:55:40;5.72;;;1.58;;
22250;SDS011;59348;52.158;5.588;2022-12-07T07:58:08;7.63;;;1.92;;
22250;SDS011;59348;52.158;5.588;2022-12-07T08:00:37;11.30;;;2.28;;
22250;SDS011;59348;52.158;5.588;2022-12-07T08:03:05;12.30;;;2.35;;
22250;SDS011;59348;52.158;5.588;2022-12-07T08:05:33;7.30;;;2.35;;
22250;SDS011;59348;52.158;5.588;2022-12-07T08:08:01;9.25;;;2.15;;
22250;SDS011;59348;52.158;5.588;2022-12-07T08:10:28;8.20;;;2.03;;
22250;SDS011;59348;52.158;5.588;2022-12-07T08:12:57;10.25;;;2.40;;
22250;SDS011;59348;52.158;5.588;2022-12-07T08:15:41;9.43;;;2.30;;
22250;SDS011;59348;52.158;5.588;2022-12-07T08:18:08;5.50;;;1.83;;
22250;SDS011;59348;52.158;5.588;2022-12-07T08:20:37;5.53;;;1.83;;
22250;SDS011;59348;52.158;5.588;2022-12-07T08:23:06;10.32;;;2.60;;
22250;SDS011;59348;52.158;5.588;2022-12-07T08:25:34;8.70;;;2.80;;
22250;SDS011;59348;52.158;5.588;2022-12-07T08:28:01;8.05;;;2.20;;
22250;SDS011;59348;52.158;5.588;2022-12-07T08:30:29;9.30;;;2.25;;
22250;SDS011;59348;52.158;5.588;2022-12-07T08:32:59;9.85;;;2.20;;
22250;SDS011;59348;52.158;5.588;2022-12-07T08:35:27;7.25;;;2.30;;
22250;SDS011;59348;52.158;5.588;2022-12-07T08:37:55;12.45;;;2.70;;
22250;SDS011;59348;52.158;5.588;2022-12-07T08:40:23;8.27;;;2.60;;
22250;SDS011;59348;52.158;5.588;2022-12-07T08:42:51;7.30;;;2.33;;
22250;SDS011;59348;52.158;5.588;2022-12-07T08:45:20;10.15;;;2.80;;
22250;SDS011;59348;52.158;5.588;2022-12-07T08:47:49;9.15;;;2.65;;
22250;SDS011;59348;52.158;5.588;2022-12-07T08:50:19;9.35;;;2.60;;
22250;SDS011;59348;52.158;5.588;2022-12-07T08:52:48;11.63;;;2.53;;
22250;SDS011;59348;52.158;5.588;2022-12-07T08:55:16;11.85;;;2.53;;
22250;SDS011;59348;52.158;5.588;2022-12-07T08:57:44;10.35;;;2.80;;
22250;SDS011;59348;52.158;5.588;2022-12-07T09:00:12;10.07;;;2.50;;
22250;SDS011;59348;52.158;5.588;2022-12-07T09:02:40;7.50;;;2.13;;
22250;SDS011;59348;52.158;5.588;2022-12-07T09:05:08;8.23;;;2.45;;
22250;SDS011;59348;52.158;5.588;2022-12-07T09:07:37;5.80;;;2.38;;
22250;SDS011;59348;52.158;5.588;2022-12-07T09:10:06;3.65;;;1.95;;
22250;SDS011;59348;52.158;5.588;2022-12-07T09:12:33;10.60;;;2.38;;
22250;SDS011;59348;52.158;5.588;2022-12-07T09:15:01;7.95;;;2.70;;
22250;SDS011;59348;52.158;5.588;2022-12-07T09:17:31;8.00;;;2.50;;
22250;SDS011;59348;52.158;5.588;2022-12-07T09:19:58;10.07;;;2.90;;
22250;SDS011;59348;52.158;5.588;2022-12-07T09:22:28;5.45;;;2.38;;
22250;SDS011;59348;52.158;5.588;2022-12-07T09:24:57;9.77;;;3.13;;
22250;SDS011;59348;52.158;5.588;2022-12-07T09:27:25;7.32;;;3.60;;
22250;SDS011;59348;52.158;5.588;2022-12-07T09:29:53;11.05;;;3.42;;
22250;SDS011;59348;52.158;5.588;2022-12-07T09:32:21;11.55;;;3.30;;
22250;SDS011;59348;52.158;5.588;2022-12-07T09:34:50;7.25;;;2.70;;
22250;SDS011;59348;52.158;5.588;2022-12-07T09:37:18;7.80;;;2.35;;
22250;SDS011;59348;52.158;5.588;2022-12-07T09:39:46;7.97;;;2.70;;
22250;SDS011;59348;52.158;5.588;2022-12-07T09:42:18;5.32;;;2.08;;
22250;SDS011;59348;52.158;5.588;2022-12-07T09:44:52;6.20;;;2.20;;
22250;SDS011;59348;52.158;5.588;2022-12-07T09:47:20;6.60;;;1.92;;
22250;SDS011;59348;52.158;5.588;2022-12-07T09:49:48;5.75;;;1.60;;
22250;SDS011;59348;52.158;5.588;2022-12-07T09:52:17;6.95;;;2.10;;
22250;SDS011;59348;52.158;5.588;2022-12-07T09:54:47;6.93;;;1.90;;
22250;SDS011;59348;52.158;5.588;2022-12-07T09:57:16;6.13;;;2.05;;
22250;SDS011;59348;52.158;5.588;2022-12-07T09:59:45;5.68;;;2.00;;
22250;SDS011;59348;52.158;5.588;2022-12-07T10:02:22;4.75;;;1.80;;
22250;SDS011;59348;52.158;5.588;2022-12-07T10:04:51;8.63;;;1.70;;
22250;SDS011;59348;52.158;5.588;2022-12-07T10:07:20;10.07;;;2.17;;
22250;SDS011;59348;52.158;5.588;2022-12-07T10:09:48;5.63;;;1.83;;
22250;SDS011;59348;52.158;5.588;2022-12-07T10:12:16;6.57;;;1.80;;
22250;SDS011;59348;52.158;5.588;2022-12-07T10:14:54;5.28;;;1.60;;
22250;SDS011;59348;52.158;5.588;2022-12-07T10:17:31;5.35;;;1.58;;
22250;SDS011;59348;52.158;5.588;2022-12-07T10:20:08;6.32;;;1.95;;
22250;SDS011;59348;52.158;5.588;2022-12-07T10:22:36;7.38;;;1.70;;
22250;SDS011;59348;52.158;5.588;2022-12-07T10:25:08;9.48;;;1.58;;
22250;SDS011;59348;52.158;5.588;2022-12-07T10:27:36;3.92;;;1.30;;
22250;SDS011;59348;52.158;5.588;2022-12-07T10:30:07;5.45;;;1.42;;
22250;SDS011;59348;52.158;5.588;2022-12-07T10:32:35;6.72;;;1.50;;
22250;SDS011;59348;52.158;5.588;2022-12-07T10:37:44;5.88;;;1.73;;
22250;SDS011;59348;52.158;5.588;2022-12-07T10:40:23;7.85;;;1.45;;
22250;SDS011;59348;52.158;5.588;2022-12-07T10:43:00;3.85;;;1.48;;
22250;SDS011;59348;52.158;5.588;2022-12-07T10:45:29;6.20;;;1.30;;
22250;SDS011;59348;52.158;5.588;2022-12-07T10:47:59;6.28;;;1.40;;
22250;SDS011;59348;52.158;5.588;2022-12-07T10:50:29;7.50;;;1.50;;
22250;SDS011;59348;52.158;5.588;2022-12-07T10:55:53;8.70;;;1.52;;
22250;SDS011;59348;52.158;5.588;2022-12-07T10:58:28;5.43;;;1.63;;
22250;SDS011;59348;52.158;5.588;2022-12-07T11:01:01;10.50;;;1.45;;
22250;SDS011;59348;52.158;5.588;2022-12-07T11:03:36;7.28;;;1.33;;
22250;SDS011;59348;52.158;5.588;2022-12-07T11:06:10;5.93;;;1.55;;
22250;SDS011;59348;52.158;5.588;2022-12-07T11:08:44;4.93;;;1.40;;
22250;SDS011;59348;52.158;5.588;2022-12-07T11:11:16;3.95;;;1.30;;
22250;SDS011;59348;52.158;5.588;2022-12-07T11:13:48;8.63;;;1.50;;
22250;SDS011;59348;52.158;5.588;2022-12-07T11:16:23;5.88;;;1.60;;
22250;SDS011;59348;52.158;5.588;2022-12-07T11:18:55;7.70;;;1.42;;
22250;SDS011;59348;52.158;5.588;2022-12-07T11:21:27;8.10;;;1.30;;
22250;SDS011;59348;52.158;5.588;2022-12-07T11:24:01;9.38;;;1.50;;
22250;SDS011;59348;52.158;5.588;2022-12-07T11:26:34;7.10;;;1.30;;
22250;SDS011;59348;52.158;5.588;2022-12-07T11:29:12;3.88;;;1.30;;
22250;SDS011;59348;52.158;5.588;2022-12-07T11:31:48;6.18;;;1.27;;
22250;SDS011;59348;52.158;5.588;2022-12-07T11:34:20;5.43;;;1.52;;
22250;SDS011;59348;52.158;5.588;2022-12-07T11:36:51;5.53;;;1.25;;
22250;SDS011;59348;52.158;5.588;2022-12-07T11:39:22;7.20;;;1.40;;
22250;SDS011;59348;52.158;5.588;2022-12-07T11:41:52;6.68;;;1.60;;
22250;SDS011;59348;52.158;5.588;2022-12-07T11:44:25;9.85;;;1.70;;
22250;SDS011;59348;52.158;5.588;2022-12-07T11:46:58;6.95;;;1.40;;
22250;SDS011;59348;52.158;5.588;2022-12-07T11:49:31;4.10;;;1.45;;
22250;SDS011;59348;52.158;5.588;2022-12-07T11:52:05;7.47;;;1.60;;
22250;SDS011;59348;52.158;5.588;2022-12-07T11:54:34;6.05;;;1.50;;
22250;SDS011;59348;52.158;5.588;2022-12-07T11:57:03;8.88;;;1.60;;
22250;SDS011;59348;52.158;5.588;2022-12-07T11:59:32;7.72;;;1.52;;
22250;SDS011;59348;52.158;5.588;2022-12-07T12:02:07;8.38;;;1.45;;
22250;SDS011;59348;52.158;5.588;2022-12-07T12:04:42;9.32;;;1.60;;
22250;SDS011;59348;52.158;5.588;2022-12-07T12:07:14;7.45;;;1.23;;
22250;SDS011;59348;52.158;5.588;2022-12-07T12:09:45;8.25;;;1.65;;
22250;SDS011;59348;52.158;5.588;2022-12-07T12:12:20;6.22;;;1.58;;
22250;SDS011;59348;52.158;5.588;2022-12-07T12:14:53;7.07;;;1.58;;
22250;SDS011;59348;52.158;5.588;2022-12-07T12:20:13;7.80;;;1.40;;
22250;SDS011;59348;52.158;5.588;2022-12-07T12:22:44;7.43;;;1.65;;
22250;SDS011;59348;52.158;5.588;2022-12-07T12:25:15;4.05;;;1.40;;
22250;SDS011;59348;52.158;5.588;2022-12-07T12:27:47;8.35;;;1.58;;
22250;SDS011;59348;52.158;5.588;2022-12-07T12:30:25;8.50;;;1.52;;
22250;SDS011;59348;52.158;5.588;2022-12-07T12:32:53;9.45;;;1.77;;
22250;SDS011;59348;52.158;5.588;2022-12-07T12:35:30;6.40;;;1.25;;
22250;SDS011;59348;52.158;5.588;2022-12-07T12:40:42;9.73;;;1.60;;
22250;SDS011;59348;52.158;5.588;2022-12-07T12:46:05;9.60;;;1.75;;
22250;SDS011;59348;52.158;5.588;2022-12-07T12:48:53;9.88;;;1.83;;
22250;SDS011;59348;52.158;5.588;2022-12-07T12:54:09;6.68;;;1.50;;
22250;SDS011;59348;52.158;5.588;2022-12-07T12:56:39;6.05;;;1.40;;
22250;SDS011;59348;52.158;5.588;2022-12-07T13:01:54;8.02;;;1.50;;
22250;SDS011;59348;52.158;5.588;2022-12-07T13:04:24;7.07;;;1.35;;
22250;SDS011;59348;52.158;5.588;2022-12-07T13:06:53;7.68;;;1.50;;
22250;SDS011;59348;52.158;5.588;2022-12-07T13:09:24;8.52;;;1.70;;
22250;SDS011;59348;52.158;5.588;2022-12-07T13:11:56;7.00;;;1.67;;
22250;SDS011;59348;52.158;5.588;2022-12-07T13:17:08;7.85;;;1.70;;
22250;SDS011;59348;52.158;5.588;2022-12-07T13:25:05;6.72;;;1.58;;
22250;SDS011;59348;52.158;5.588;2022-12-07T13:27:33;5.85;;;1.52;;
22250;SDS011;59348;52.158;5.588;2022-12-07T13:30:02;5.88;;;1.45;;
22250;SDS011;59348;52.158;5.588;2022-12-07T13:32:35;4.55;;;1.35;;
22250;SDS011;59348;52.158;5.588;2022-12-07T13:37:44;4.20;;;1.05;;
22250;SDS011;59348;52.158;5.588;2022-12-07T13:40:15;3.05;;;1.30;;
22250;SDS011;59348;52.158;5.588;2022-12-07T13:42:44;3.85;;;1.10;;
22250;SDS011;59348;52.158;5.588;2022-12-07T13:45:20;4.65;;;1.08;;
22250;SDS011;59348;52.158;5.588;2022-12-07T13:48:10;5.18;;;1.05;;
22250;SDS011;59348;52.158;5.588;2022-12-07T13:50:41;4.80;;;1.38;;
22250;SDS011;59348;52.158;5.588;2022-12-07T13:53:11;7.53;;;1.48;;
22250;SDS011;59348;52.158;5.588;2022-12-07T13:55:45;3.50;;;1.30;;
22250;SDS011;59348;52.158;5.588;2022-12-07T13:58:12;5.60;;;1.50;;
22250;SDS011;59348;52.158;5.588;2022-12-07T14:00:40;6.63;;;1.30;;
22250;SDS011;59348;52.158;5.588;2022-12-07T14:06:02;5.28;;;1.33;;
22250;SDS011;59348;52.158;5.588;2022-12-07T14:08:30;3.63;;;1.45;;
22250;SDS011;59348;52.158;5.588;2022-12-07T14:10:59;4.53;;;1.20;;
22250;SDS011;59348;52.158;5.588;2022-12-07T14:13:28;3.05;;;1.23;;
22250;SDS011;59348;52.158;5.588;2022-12-07T14:15:59;3.17;;;1.00;;
22250;SDS011;59348;52.158;5.588;2022-12-07T14:18:27;2.72;;;1.40;;
22250;SDS011;59348;52.158;5.588;2022-12-07T14:21:03;5.32;;;1.40;;
22250;SDS011;59348;52.158;5.588;2022-12-07T14:23:31;2.50;;;1.10;;
22250;SDS011;59348;52.158;5.588;2022-12-07T14:26:06;4.25;;;1.40;;
22250;SDS011;59348;52.158;5.588;2022-12-07T14:28:36;5.03;;;1.30;;
22250;SDS011;59348;52.158;5.588;2022-12-07T14:31:07;6.60;;;1.60;;
22250;SDS011;59348;52.158;5.588;2022-12-07T14:33:38;5.55;;;1.42;;
22250;SDS011;59348;52.158;5.588;2022-12-07T14:36:08;3.33;;;1.08;;
22250;SDS011;59348;52.158;5.588;2022-12-07T14:38:37;3.90;;;1.13;;
22250;SDS011;59348;52.158;5.588;2022-12-07T14:41:13;6.55;;;1.20;;
22250;SDS011;59348;52.158;5.588;2022-12-07T14:43:55;2.92;;;1.35;;
22250;SDS011;59348;52.158;5.588;2022-12-07T14:46:24;3.63;;;1.17;;
22250;SDS011;59348;52.158;5.588;2022-12-07T14:48:51;5.25;;;1.10;;
22250;SDS011;59348;52.158;5.588;2022-12-07T14:51:19;3.40;;;1.23;;
22250;SDS011;59348;52.158;5.588;2022-12-07T14:53:49;5.85;;;1.38;;
22250;SDS011;59348;52.158;5.588;2022-12-07T14:56:19;2.65;;;1.10;;
22250;SDS011;59348;52.158;5.588;2022-12-07T14:58:46;3.45;;;1.17;;
22250;SDS011;59348;52.158;5.588;2022-12-07T15:01:14;5.22;;;1.40;;
22250;SDS011;59348;52.158;5.588;2022-12-07T15:03:42;3.65;;;1.40;;
22250;SDS011;59348;52.158;5.588;2022-12-07T15:06:10;6.18;;;1.20;;
22250;SDS011;59348;52.158;5.588;2022-12-07T15:08:40;4.95;;;1.10;;
22250;SDS011;59348;52.158;5.588;2022-12-07T15:11:09;5.45;;;1.10;;
22250;SDS011;59348;52.158;5.588;2022-12-07T15:13:39;2.90;;;1.15;;
22250;SDS011;59348;52.158;5.588;2022-12-07T15:16:20;5.78;;;1.40;;
22250;SDS011;59348;52.158;5.588;2022-12-07T15:18:48;4.90;;;1.50;;
22250;SDS011;59348;52.158;5.588;2022-12-07T15:21:17;7.60;;;1.70;;
22250;SDS011;59348;52.158;5.588;2022-12-07T15:23:45;6.05;;;1.50;;
22250;SDS011;59348;52.158;5.588;2022-12-07T15:26:13;7.53;;;1.65;;
22250;SDS011;59348;52.158;5.588;2022-12-07T15:28:43;4.55;;;1.50;;
22250;SDS011;59348;52.158;5.588;2022-12-07T15:31:11;5.65;;;1.90;;
22250;SDS011;59348;52.158;5.588;2022-12-07T15:33:39;4.93;;;1.40;;